MSC Vigo — A8ZV8 — position and weather

sailwx.info

Track history (hours):
 
Tides and Currents Weather Stations Pressure Air Temp Water Temp Dewpoint Dewpoint Depression Visibility Wind Speed Wind Dir Waves Ship Positions

MSC Vigo

Last reported at 2015-Jul-05 22:32 UTC. Time now 2015-Jul-05 23:19 UTC.
Position N 39°26' W 000°20'.

Length 270 m; draft 13 m.

Type: Ship (hazmat cat A). MMSI: 636092276.

Date/timePositionNaut miles runAvg speedWind from/ knotsBaromVisibWave heightAir tempDewpointWater temp
2015-Jul-05 22:32N 39°26' W 000°20'0 0.0
2015-Jul-05 21:32N 39°26' W 000°20'0 0.0
2015-Jul-05 20:29N 39°26' W 000°20'0 0.0
2015-Jul-05 19:29N 39°26' W 000°20'0 0.0
2015-Jul-05 18:29N 39°26' W 000°20'0 0.0
2015-Jul-05 17:32N 39°26' W 000°20'0 0.0
2015-Jul-05 16:32N 39°26' W 000°20'0 0.5
2015-Jul-05 15:33N 39°26' W 000°19'3 3.3
2015-Jul-05 14:32N 39°24' W 000°16'0 0.0
2015-Jul-05 13:32N 39°24' W 000°16'0 0.0
2015-Jul-05 12:14N 39°24' W 000°16'0 0.1
2015-Jul-05 09:32N 39°24' W 000°15'0 0.0
2015-Jul-05 08:26N 39°24' W 000°15'0 0.0
2015-Jul-05 07:32N 39°24' W 000°15'0 0.0
2015-Jul-05 06:26N 39°24' W 000°15'0 0.0
2015-Jul-05 05:32N 39°24' W 000°15'1 1.1
2015-Jul-05 04:33N 39°23' W 000°14'4613.2
2015-Jul-05 01:07N 38°48' E 000°22'811.3
2015-Jul-05 00:22N 38°40' E 000°25'1112.9
2015-Jul-04 23:33N 38°31' E 000°18'1312.8
2015-Jul-04 22:33N 38°20' E 000°09'1313.4
2015-Jul-04 21:33N 38°09' E 000°00'1313.2
2015-Jul-04 20:33N 37°58' W 000°10'1413.5
2015-Jul-04 19:33N 37°47' W 000°19'1413.7
2015-Jul-04 18:33N 37°36' W 000°29'1313.3
2015-Jul-04 17:33N 37°26' W 000°41'1313.5
2015-Jul-04 16:33N 37°17' W 000°54'1313.4
2015-Jul-04 15:33N 37°08' W 001°06'1313.2
2015-Jul-04 14:33N 36°59' W 001°18'1312.9
2015-Jul-04 13:33N 36°51' W 001°30'1412.8
2015-Jul-04 12:28N 36°41' W 001°43'4812.2
2015-Jul-04 08:32N 36°18' W 002°35'1413.5
2015-Jul-04 07:32N 36°17' W 002°52'11614.3
2015-Jul-03 23:26N 35°60' W 005°13'34 2.2
2015-Jul-03 08:26N 35°53' W 005°54'5413.6
2015-Jul-03 04:26N 35°16' W 006°43'1517.0
2015-Jul-03 03:33N 35°05' W 006°56'1716.9
2015-Jul-03 02:32N 34°53' W 007°11'5416.6
2015-Jul-02 23:19N 34°14' W 007°56'1316.7
2015-Jul-02 22:33N 34°05' W 008°06'1716.7
2015-Jul-02 21:33N 33°53' W 008°21'1716.6
2015-Jul-02 20:33N 33°41' W 008°34'1616.3
2015-Jul-02 19:33N 33°29' W 008°48'1616.0
2015-Jul-02 18:33N 33°18' W 009°02'1615.6
2015-Jul-02 17:33N 33°07' W 009°14'1615.7
2015-Jul-02 16:31N 32°55' W 009°28'9517.2
2015-Jul-02 11:00N 31°36' W 010°30'13115.5 040 / 181019.010.8 1.523.519.9
2015-Jul-02 02:32N 29°55' W 012°07'1716.4
2015-Jul-02 01:28N 29°41' W 012°19'1616.5
2015-Jul-02 00:29N 29°28' W 012°30'4816.5
2015-Jul-01 21:33N 28°49' W 013°03'1616.5
2015-Jul-01 20:33N 28°36' W 013°14'1716.5
2015-Jul-01 19:31N 28°22' W 013°26'1616.2
2015-Jul-01 18:33N 28°10' W 013°37'1616.4
2015-Jul-01 17:33N 27°56' W 013°48'1616.4
2015-Jul-01 16:33N 27°43' W 013°59'1616.4
2015-Jul-01 15:33N 27°30' W 014°10'1716.8
2015-Jul-01 14:33N 27°15' W 014°19'1716.9
2015-Jul-01 13:33N 27°00' W 014°29'1222.5
2015-Jul-01 13:00N 26°48' W 014°30'716.6 030 / 241017.510.8 2.022.017.522.0
2015-Jul-01 12:33N 26°46' W 014°38'3120.0
2015-Jul-01 11:00N 26°18' W 014°54'11615.3 040 / 251017.0 5.4 2.523.019.3
2015-Jul-01 03:26N 24°38' W 015°57'3715.8
2015-Jul-01 01:05N 24°05' W 016°17'16316.2
2015-Jun-30 15:00N 21°42' W 017°42'65416.8 030 / 281014.5 2.2 22.018.322.0
2015-Jun-29 00:00N 12°12' W 023°18'   010 / 81018.010.8 0.525.019.9
Track history (hours):
 
Tides and Currents Weather Stations Pressure Air Temp Water Temp Dewpoint Dewpoint Depression Visibility Wind Speed Wind Dir Waves Ship Positions

MSC Vigo

Last reported at 2015-Jul-05 22:32 UTC. Time now 2015-Jul-05 23:19 UTC.
Position N 39°26' W 000°20'.

Length 270 m; draft 13 m.

Type: Ship (hazmat cat A). MMSI: 636092276.

Date/timePositionNaut miles runAvg speedWind from/ knotsBaromVisibWave heightAir tempDewpointWater temp
2015-Jul-05 22:32N 39°26' W 000°20'0 0.0
2015-Jul-05 21:32N 39°26' W 000°20'0 0.0
2015-Jul-05 20:29N 39°26' W 000°20'0 0.0
2015-Jul-05 19:29N 39°26' W 000°20'0 0.0
2015-Jul-05 18:29N 39°26' W 000°20'0 0.0
2015-Jul-05 17:32N 39°26' W 000°20'0 0.0
2015-Jul-05 16:32N 39°26' W 000°20'0 0.5
2015-Jul-05 15:33N 39°26' W 000°19'3 3.3
2015-Jul-05 14:32N 39°24' W 000°16'0 0.0
2015-Jul-05 13:32N 39°24' W 000°16'0 0.0
2015-Jul-05 12:14N 39°24' W 000°16'0 0.1
2015-Jul-05 09:32N 39°24' W 000°15'0 0.0
2015-Jul-05 08:26N 39°24' W 000°15'0 0.0
2015-Jul-05 07:32N 39°24' W 000°15'0 0.0
2015-Jul-05 06:26N 39°24' W 000°15'0 0.0
2015-Jul-05 05:32N 39°24' W 000°15'1 1.1
2015-Jul-05 04:33N 39°23' W 000°14'4613.2
2015-Jul-05 01:07N 38°48' E 000°22'811.3
2015-Jul-05 00:22N 38°40' E 000°25'1112.9
2015-Jul-04 23:33N 38°31' E 000°18'1312.8
2015-Jul-04 22:33N 38°20' E 000°09'1313.4
2015-Jul-04 21:33N 38°09' E 000°00'1313.2
2015-Jul-04 20:33N 37°58' W 000°10'1413.5
2015-Jul-04 19:33N 37°47' W 000°19'1413.7
2015-Jul-04 18:33N 37°36' W 000°29'1313.3
2015-Jul-04 17:33N 37°26' W 000°41'1313.5
2015-Jul-04 16:33N 37°17' W 000°54'1313.4
2015-Jul-04 15:33N 37°08' W 001°06'1313.2
2015-Jul-04 14:33N 36°59' W 001°18'1312.9
2015-Jul-04 13:33N 36°51' W 001°30'1412.8
2015-Jul-04 12:28N 36°41' W 001°43'4812.2
2015-Jul-04 08:32N 36°18' W 002°35'1413.5
2015-Jul-04 07:32N 36°17' W 002°52'11614.3
2015-Jul-03 23:26N 35°60' W 005°13'34 2.2
2015-Jul-03 08:26N 35°53' W 005°54'5413.6
2015-Jul-03 04:26N 35°16' W 006°43'1517.0
2015-Jul-03 03:33N 35°05' W 006°56'1716.9
2015-Jul-03 02:32N 34°53' W 007°11'5416.6
2015-Jul-02 23:19N 34°14' W 007°56'1316.7
2015-Jul-02 22:33N 34°05' W 008°06'1716.7
2015-Jul-02 21:33N 33°53' W 008°21'1716.6
2015-Jul-02 20:33N 33°41' W 008°34'1616.3
2015-Jul-02 19:33N 33°29' W 008°48'1616.0
2015-Jul-02 18:33N 33°18' W 009°02'1615.6
2015-Jul-02 17:33N 33°07' W 009°14'1615.7
2015-Jul-02 16:31N 32°55' W 009°28'9517.2
2015-Jul-02 11:00N 31°36' W 010°30'13115.5 040 / 181019.010.8 1.523.519.9
2015-Jul-02 02:32N 29°55' W 012°07'1716.4
2015-Jul-02 01:28N 29°41' W 012°19'1616.5
2015-Jul-02 00:29N 29°28' W 012°30'4816.5
2015-Jul-01 21:33N 28°49' W 013°03'1616.5
2015-Jul-01 20:33N 28°36' W 013°14'1716.5
2015-Jul-01 19:31N 28°22' W 013°26'1616.2
2015-Jul-01 18:33N 28°10' W 013°37'1616.4
2015-Jul-01 17:33N 27°56' W 013°48'1616.4
2015-Jul-01 16:33N 27°43' W 013°59'1616.4
2015-Jul-01 15:33N 27°30' W 014°10'1716.8
2015-Jul-01 14:33N 27°15' W 014°19'1716.9
2015-Jul-01 13:33N 27°00' W 014°29'1222.5
2015-Jul-01 13:00N 26°48' W 014°30'716.6 030 / 241017.510.8 2.022.017.522.0
2015-Jul-01 12:33N 26°46' W 014°38'3120.0
2015-Jul-01 11:00N 26°18' W 014°54'11615.3 040 / 251017.0 5.4 2.523.019.3
2015-Jul-01 03:26N 24°38' W 015°57'3715.8
2015-Jul-01 01:05N 24°05' W 016°17'16316.2
2015-Jun-30 15:00N 21°42' W 017°42'65416.8 030 / 281014.5 2.2 22.018.322.0
2015-Jun-29 00:00N 12°12' W 023°18'   010 / 81018.010.8 0.525.019.9

Dump ship's entire track history